Time;durP1;ratioP1;P1;durP2;ratioP2;P2;SDS_P1;SDS_P2;PMS_P1;PMS_P2;Temp;Humidity;BMP_temperature;BMP_pressure;BME280_temperature;BME280_humidity;BME280_pressure;Samples;Min_cycle;Max_cycle;Signal;HPM_P1;HPM_P2
2023/06/15 00:01:32;;;;;;;9.93;3.70;;;18.10;79.10;;;;;;5071639;28;20040;-83
2023/06/15 00:03:58;;;;;;;7.03;2.72;;;18.10;79.30;;;;;;5072063;28;20494;-84
2023/06/15 00:06:24;;;;;;;10.93;3.42;;;17.90;78.90;;;;;;5055521;28;20047;-84
2023/06/15 00:08:50;;;;;;;7.65;3.10;;;17.90;80.50;;;;;;5071419;28;20032;-83
2023/06/15 00:11:15;;;;;;;12.10;3.60;;;18.00;81.10;;;;;;5054802;28;20052;-83
2023/06/15 00:13:41;;;;;;;8.05;3.38;;;17.90;81.30;;;;;;5072930;28;20040;-83
2023/06/15 00:16:06;;;;;;;8.05;3.13;;;17.90;81.70;;;;;;5071916;28;20448;-83
2023/06/15 00:18:33;;;;;;;8.25;3.30;;;18.00;82.70;;;;;;5071942;28;20123;-83
2023/06/15 00:21:00;;;;;;;10.10;3.40;;;17.90;82.00;;;;;;5054669;28;20044;-83
2023/06/15 00:23:27;;;;;;;9.82;3.38;;;17.90;82.10;;;;;;5071831;28;20587;-83
2023/06/15 00:25:53;;;;;;;9.60;3.40;;;17.90;82.40;;;;;;5072611;28;20200;-83
2023/06/15 00:28:20;;;;;;;10.48;3.58;;;17.90;82.80;;;;;;5055058;28;20460;-83
2023/06/15 00:30:45;;;;;;;8.18;3.35;;;17.80;82.80;;;;;;5071237;28;20409;-84
2023/06/15 00:33:11;;;;;;;10.95;3.47;;;17.70;82.80;;;;;;5071405;28;20036;-83
2023/06/15 00:35:37;;;;;;;8.80;3.83;;;17.60;83.90;;;;;;5071729;28;20079;-84
2023/06/15 00:38:02;;;;;;;7.32;2.97;;;17.40;84.00;;;;;;5071327;28;20036;-83
2023/06/15 00:40:28;;;;;;;8.18;3.75;;;17.30;83.70;;;;;;5054262;28;20037;-83
2023/06/15 00:42:53;;;;;;;8.95;3.75;;;17.10;85.50;;;;;;5054545;28;20448;-83
2023/06/15 00:45:19;;;;;;;9.10;2.95;;;17.00;86.30;;;;;;5071247;28;20028;-83
2023/06/15 00:47:46;;;;;;;9.13;3.55;;;16.90;85.70;;;;;;5054570;28;20028;-84
2023/06/15 00:50:18;;;;;;;7.80;3.20;;;16.80;87.90;;;;;;5070989;28;20044;-83
2023/06/15 00:52:45;;;;;;;8.80;3.83;;;16.80;88.70;;;;;;5071203;28;20032;-83
2023/06/15 00:55:13;;;;;;;10.70;3.90;;;16.70;89.40;;;;;;5071207;28;20040;-83
2023/06/15 00:57:44;;;;;;;9.10;3.60;;;16.70;90.00;;;;;;5071118;28;20130;-83
2023/06/15 01:00:18;;;;;;;5.82;2.50;;;16.60;90.40;;;;;;5070588;28;20090;-83
2023/06/15 01:02:44;;;;;;;9.13;2.90;;;16.50;90.20;;;;;;5071078;28;20097;-83
2023/06/15 01:05:10;;;;;;;8.38;3.90;;;16.30;90.70;;;;;;5070877;28;20048;-83
2023/06/15 01:07:40;;;;;;;10.25;3.75;;;16.40;91.90;;;;;;5054137;28;20041;-83
2023/06/15 01:10:09;;;;;;;9.35;3.60;;;16.40;92.00;;;;;;5070703;28;20040;-83
2023/06/15 01:12:40;;;;;;;10.02;3.97;;;16.40;92.10;;;;;;5070706;28;20044;-83
2023/06/15 01:15:07;;;;;;;9.68;4.03;;;16.30;92.70;;;;;;5071039;28;20405;-83
2023/06/15 01:17:33;;;;;;;8.02;3.63;;;16.30;93.10;;;;;;5070684;28;20079;-83
2023/06/15 01:20:05;;;;;;;9.30;2.92;;;16.20;93.40;;;;;;5069996;28;20070;-83
2023/06/15 01:23:01;;;;;;;8.13;3.28;;;16.10;92.90;;;;;;5053394;28;20090;-83
2023/06/15 01:25:53;;;;;;;9.23;3.67;;;16.00;93.70;;;;;;5070788;28;20395;-83
2023/06/15 01:28:20;;;;;;;9.32;3.80;;;16.00;94.50;;;;;;5053969;28;20123;-83
2023/06/15 01:30:55;;;;;;;9.88;3.53;;;16.00;95.20;;;;;;5053734;28;20056;-83
2023/06/15 01:33:22;;;;;;;10.30;4.38;;;16.00;95.30;;;;;;5070495;28;20051;-83
2023/06/15 01:35:48;;;;;;;9.10;4.05;;;15.90;95.50;;;;;;5053838;28;20083;-83
2023/06/15 01:38:15;;;;;;;10.07;4.15;;;15.90;96.00;;;;;;5070338;28;20079;-83
2023/06/15 01:40:44;;;;;;;9.05;3.97;;;15.90;96.30;;;;;;5053624;28;20494;-83
2023/06/15 01:43:12;;;;;;;9.43;4.40;;;15.90;96.70;;;;;;5053631;28;20033;-83
2023/06/15 01:45:40;;;;;;;7.95;3.20;;;15.90;96.90;;;;;;5071925;28;20036;-83
2023/06/15 01:48:07;;;;;;;10.68;4.18;;;15.80;96.50;;;;;;5070374;28;20071;-83
2023/06/15 01:50:34;;;;;;;7.93;2.67;;;15.80;98.10;;;;;;5070198;28;20075;-83
2023/06/15 01:53:01;;;;;;;9.07;4.30;;;15.70;96.90;;;;;;5070297;28;20102;-83
2023/06/15 01:55:26;;;;;;;9.95;4.35;;;15.70;98.90;;;;;;5069995;28;20036;-83
2023/06/15 01:57:53;;;;;;;9.13;4.53;;;15.70;99.10;;;;;;5070239;28;20036;-83
2023/06/15 02:00:20;;;;;;;7.43;3.55;;;15.60;99.20;;;;;;5053340;28;20502;-83
2023/06/15 02:02:46;;;;;;;7.32;2.70;;;15.60;98.50;;;;;;5070459;28;20045;-83
2023/06/15 02:05:11;;;;;;;8.45;4.38;;;15.50;98.60;;;;;;5070120;28;20162;-83
2023/06/15 02:07:37;;;;;;;9.40;4.50;;;15.50;99.90;;;;;;5070169;28;20043;-83
2023/06/15 02:10:03;;;;;;;9.07;4.30;;;15.60;99.90;;;;;;5053184;28;20068;-83
2023/06/15 02:12:29;;;;;;;8.70;3.15;;;15.60;99.90;;;;;;5069955;28;20446;-83
2023/06/15 02:14:55;;;;;;;8.05;3.67;;;15.60;99.70;;;;;;5053441;28;20040;-83
2023/06/15 02:17:24;;;;;;;9.20;4.22;;;15.60;99.90;;;;;;5053420;28;20040;-83
2023/06/15 02:19:50;;;;;;;10.38;3.97;;;15.60;99.90;;;;;;5070015;28;20123;-83
2023/06/15 02:22:16;;;;;;;8.93;4.32;;;15.60;99.90;;;;;;5069884;28;20410;-83
2023/06/15 02:24:42;;;;;;;8.07;3.22;;;15.60;99.90;;;;;;5069975;28;20036;-83
2023/06/15 02:27:09;;;;;;;10.98;4.30;;;15.50;99.90;;;;;;5069758;28;20033;-83
2023/06/15 02:29:35;;;;;;;8.18;3.17;;;15.40;99.90;;;;;;5069999;28;20044;-83
2023/06/15 02:32:01;;;;;;;8.52;2.97;;;15.30;99.90;;;;;;5070687;28;20429;-83
2023/06/15 02:34:26;;;;;;;10.40;4.22;;;15.10;99.90;;;;;;5074013;28;20135;-83
2023/06/15 02:36:55;;;;;;;7.82;3.72;;;15.10;99.90;;;;;;5073737;28;20047;-83
2023/06/15 02:39:21;;;;;;;10.98;4.57;;;15.10;99.90;;;;;;5057188;28;20492;-82
2023/06/15 02:41:47;;;;;;;10.05;4.50;;;15.10;99.90;;;;;;5056480;28;20610;-83
2023/06/15 02:44:16;;;;;;;7.47;3.55;;;15.10;99.90;;;;;;5073587;28;20049;-83
2023/06/15 02:46:42;;;;;;;7.30;2.50;;;15.10;99.90;;;;;;5056886;28;20072;-83
2023/06/15 02:49:08;;;;;;;7.43;3.80;;;14.90;99.90;;;;;;5073587;28;20119;-83
2023/06/15 02:51:35;;;;;;;7.95;2.88;;;14.80;99.90;;;;;;5073320;28;20500;-83
2023/06/15 02:54:01;;;;;;;7.53;3.05;;;14.70;99.90;;;;;;5073281;28;20093;-83
2023/06/15 02:56:29;;;;;;;9.70;4.25;;;14.70;99.90;;;;;;5073568;28;20036;-83
2023/06/15 02:58:55;;;;;;;8.35;4.18;;;14.70;99.90;;;;;;5056618;28;20107;-83
2023/06/15 03:01:21;;;;;;;11.82;4.43;;;14.70;99.90;;;;;;5073011;28;20045;-82
2023/06/15 03:03:47;;;;;;;10.73;4.53;;;14.80;99.90;;;;;;5073119;28;20044;-83
2023/06/15 03:06:14;;;;;;;11.73;3.50;;;14.80;99.90;;;;;;5073162;28;20037;-83
2023/06/15 03:08:41;;;;;;;9.35;4.88;;;14.80;99.90;;;;;;5056620;28;20037;-83
2023/06/15 03:11:06;;;;;;;9.45;4.72;;;14.90;99.90;;;;;;5072738;28;20101;-83
2023/06/15 03:13:33;;;;;;;9.70;4.03;;;14.90;99.90;;;;;;5073230;28;20440;-83
2023/06/15 03:16:00;;;;;;;8.40;3.67;;;14.90;99.90;;;;;;5056289;28;20094;-83
2023/06/15 03:18:27;;;;;;;11.43;3.63;;;14.90;99.90;;;;;;5056267;28;20048;-83
2023/06/15 03:20:52;;;;;;;11.27;3.83;;;14.90;99.90;;;;;;5072456;28;20040;-83
2023/06/15 03:23:19;;;;;;;10.32;5.35;;;14.90;99.90;;;;;;5056181;28;20082;-83
2023/06/15 03:25:45;;;;;;;11.98;4.93;;;15.00;99.90;;;;;;5072663;28;20033;-83
2023/06/15 03:28:11;;;;;;;9.82;3.58;;;15.00;99.90;;;;;;5072751;28;20045;-83
2023/06/15 03:30:40;;;;;;;9.85;5.10;;;15.00;99.90;;;;;;5056017;28;20044;-83
2023/06/15 03:33:07;;;;;;;9.43;4.78;;;15.00;99.90;;;;;;5072658;28;20044;-83
2023/06/15 03:35:34;;;;;;;10.50;5.03;;;15.00;99.90;;;;;;5072657;28;20044;-83
2023/06/15 03:38:00;;;;;;;9.85;4.82;;;15.00;99.90;;;;;;5055782;28;20494;-83
2023/06/15 03:40:25;;;;;;;11.88;5.18;;;15.10;99.90;;;;;;5055686;28;20044;-83
2023/06/15 03:42:51;;;;;;;10.80;5.07;;;15.00;99.90;;;;;;5072362;28;20489;-83
2023/06/15 03:45:18;;;;;;;11.85;4.72;;;15.00;99.90;;;;;;5071855;28;20037;-83
2023/06/15 03:47:46;;;;;;;8.38;3.92;;;15.00;99.90;;;;;;5072422;28;20068;-83
2023/06/15 03:50:12;;;;;;;12.38;3.85;;;14.90;99.90;;;;;;5071875;28;20170;-83
2023/06/15 03:52:37;;;;;;;9.90;4.82;;;14.80;99.90;;;;;;5072654;28;20123;-83
2023/06/15 03:55:03;;;;;;;8.88;4.28;;;14.80;99.90;;;;;;5072478;28;20052;-83
2023/06/15 03:57:29;;;;;;;7.55;4.28;;;14.80;99.90;;;;;;5072156;28;20040;-83
2023/06/15 03:59:55;;;;;;;5.72;2.83;;;14.70;99.90;;;;;;5055152;28;20046;-83
2023/06/15 04:02:20;;;;;;;7.95;3.05;;;14.50;99.90;;;;;;5071992;28;20044;-83
2023/06/15 04:04:46;;;;;;;7.70;2.90;;;14.30;99.90;;;;;;5071888;28;20383;-83
2023/06/15 04:07:12;;;;;;;11.50;5.40;;;14.30;99.90;;;;;;5072281;28;20040;-83
2023/06/15 04:09:38;;;;;;;14.70;6.20;;;14.40;99.90;;;;;;5055325;28;20076;-83
2023/06/15 04:12:04;;;;;;;12.70;6.60;;;14.50;99.90;;;;;;5071769;28;20110;-83
2023/06/15 04:14:30;;;;;;;13.93;6.65;;;14.60;99.90;;;;;;5071853;28;20478;-83
2023/06/15 04:16:56;;;;;;;11.07;6.50;;;14.70;99.90;;;;;;5055246;28;20051;-83
2023/06/15 04:19:22;;;;;;;13.15;4.20;;;14.80;99.90;;;;;;5071619;28;20040;-83
2023/06/15 04:21:48;;;;;;;13.25;6.18;;;14.80;99.90;;;;;;5071434;28;20086;-83
2023/06/15 04:24:14;;;;;;;13.82;4.13;;;14.90;99.90;;;;;;5071687;28;20119;-82
2023/06/15 04:26:42;;;;;;;11.20;6.43;;;14.90;99.90;;;;;;5054807;28;20477;-83
2023/06/15 04:29:08;;;;;;;10.10;4.00;;;14.90;99.90;;;;;;5071789;28;20093;-83
2023/06/15 04:31:34;;;;;;;12.77;6.22;;;14.90;99.90;;;;;;5071305;28;20080;-83
2023/06/15 04:34:00;;;;;;;11.27;5.95;;;15.00;99.90;;;;;;5071558;28;20079;-83
2023/06/15 04:36:31;;;;;;;11.63;4.68;;;15.10;99.90;;;;;;5054884;28;20044;-83
2023/06/15 04:38:59;;;;;;;9.48;4.47;;;15.00;99.90;;;;;;5071419;28;20049;-83
2023/06/15 04:41:27;;;;;;;14.23;5.43;;;15.00;99.90;;;;;;5054328;28;20043;-83
2023/06/15 04:43:53;;;;;;;11.40;6.20;;;15.00;99.90;;;;;;5071302;28;20040;-83
2023/06/15 04:46:19;;;;;;;10.80;6.10;;;15.10;99.90;;;;;;5054917;28;20039;-83
2023/06/15 04:48:45;;;;;;;13.77;6.20;;;15.20;99.90;;;;;;5054317;28;20517;-83
2023/06/15 04:51:11;;;;;;;10.50;3.83;;;15.30;99.90;;;;;;5070801;28;20502;-83
2023/06/15 04:53:37;;;;;;;13.30;5.53;;;15.30;99.90;;;;;;5071153;28;20051;-83
2023/06/15 04:56:03;;;;;;;9.50;4.10;;;15.40;99.90;;;;;;5054100;28;20044;-83
2023/06/15 04:58:28;;;;;;;13.20;4.10;;;15.50;99.90;;;;;;5071024;28;20043;-83
2023/06/15 05:00:54;;;;;;;9.82;5.18;;;15.50;99.90;;;;;;5070519;28;20146;-83
2023/06/15 05:03:19;;;;;;;13.75;5.25;;;15.60;99.90;;;;;;5070798;28;20033;-83
2023/06/15 05:05:45;;;;;;;11.02;5.38;;;15.70;99.90;;;;;;5070919;28;20129;-83
2023/06/15 05:08:13;;;;;;;11.88;4.47;;;15.80;99.90;;;;;;5054274;28;20162;-83
2023/06/15 05:10:39;;;;;;;10.90;5.00;;;15.90;99.90;;;;;;5070680;28;20051;-83
2023/06/15 05:13:05;;;;;;;8.40;3.55;;;16.00;99.90;;;;;;5070668;28;20406;-83
2023/06/15 05:15:30;;;;;;;10.73;3.72;;;16.00;99.90;;;;;;5071012;28;20094;-83
2023/06/15 05:17:56;;;;;;;10.20;5.00;;;16.00;99.90;;;;;;5070783;28;20105;-82
2023/06/15 05:20:22;;;;;;;10.30;3.65;;;16.10;99.90;;;;;;5070550;28;20040;-82
2023/06/15 05:22:47;;;;;;;9.13;4.32;;;16.20;99.90;;;;;;5053916;28;20520;-82
2023/06/15 05:25:13;;;;;;;9.40;4.43;;;16.30;99.90;;;;;;5054259;28;20111;-82
2023/06/15 05:27:38;;;;;;;10.55;4.65;;;16.40;99.90;;;;;;5070780;28;20071;-82
2023/06/15 05:30:07;;;;;;;8.55;2.88;;;16.40;99.90;;;;;;5053649;28;20656;-83
2023/06/15 05:32:37;;;;;;;14.20;5.05;;;16.50;99.90;;;;;;5070731;28;20125;-82
2023/06/15 05:35:07;;;;;;;10.13;4.70;;;16.60;99.90;;;;;;5053445;28;20094;-84
2023/06/15 05:37:34;;;;;;;12.13;4.80;;;16.70;99.90;;;;;;5053880;28;20043;-83
2023/06/15 05:40:02;;;;;;;9.25;4.53;;;16.80;99.90;;;;;;5070157;28;20532;-83
2023/06/15 05:42:28;;;;;;;9.80;4.80;;;16.90;99.90;;;;;;5070425;28;20045;-83
2023/06/15 05:44:54;;;;;;;8.75;4.18;;;16.90;99.90;;;;;;5053545;28;20573;-83
2023/06/15 05:47:20;;;;;;;9.80;4.38;;;17.00;99.90;;;;;;5070663;28;20078;-83
2023/06/15 05:49:45;;;;;;;9.73;3.05;;;17.10;99.90;;;;;;5070033;28;20085;-83
2023/06/15 05:52:11;;;;;;;9.32;4.00;;;17.10;99.90;;;;;;5070572;28;20099;-83
2023/06/15 05:54:37;;;;;;;10.60;4.07;;;17.20;99.90;;;;;;5053703;28;20566;-83
2023/06/15 05:57:03;;;;;;;8.38;4.20;;;17.30;99.90;;;;;;5070313;28;20047;-84
2023/06/15 05:59:28;;;;;;;11.40;4.25;;;17.40;99.90;;;;;;5053277;28;20071;-83
2023/06/15 06:01:54;;;;;;;9.80;4.05;;;17.50;99.90;;;;;;5069980;28;20129;-83
2023/06/15 06:04:20;;;;;;;15.07;4.28;;;17.60;99.90;;;;;;5053519;28;20043;-83
2023/06/15 06:06:49;;;;;;;8.65;3.70;;;17.70;99.90;;;;;;5070607;28;20089;-83
2023/06/15 06:09:15;;;;;;;8.73;3.70;;;17.80;99.90;;;;;;5056853;28;20028;-83
2023/06/15 06:11:40;;;;;;;11.82;3.83;;;17.80;99.90;;;;;;5072573;28;20094;-83
2023/06/15 06:14:06;;;;;;;9.48;4.00;;;17.90;99.90;;;;;;5073772;28;20044;-83
2023/06/15 06:16:31;;;;;;;10.55;3.63;;;18.00;98.30;;;;;;5057712;28;20040;-83
2023/06/15 06:18:57;;;;;;;9.57;3.22;;;18.10;97.00;;;;;;5057385;28;20513;-83
2023/06/15 06:21:22;;;;;;;9.75;4.00;;;18.20;96.80;;;;;;5057182;28;20123;-84
2023/06/15 06:23:49;;;;;;;10.10;4.05;;;18.30;96.40;;;;;;5074264;28;20028;-84
2023/06/15 06:26:14;;;;;;;10.93;3.97;;;18.30;95.70;;;;;;5073984;28;20506;-84
2023/06/15 06:28:40;;;;;;;10.85;3.92;;;18.50;95.60;;;;;;5073815;28;20124;-83
2023/06/15 06:31:06;;;;;;;9.90;3.85;;;18.50;95.50;;;;;;5073537;28;20044;-84
2023/06/15 06:33:32;;;;;;;11.05;4.68;;;18.60;95.20;;;;;;5073862;28;20041;-84
2023/06/15 06:35:57;;;;;;;10.70;4.07;;;18.70;94.10;;;;;;5057303;28;20041;-84
2023/06/15 06:38:23;;;;;;;9.77;4.28;;;18.80;94.10;;;;;;5073932;28;20048;-84
2023/06/15 06:40:48;;;;;;;9.25;4.15;;;18.90;94.20;;;;;;5073173;28;20041;-84
2023/06/15 06:43:14;;;;;;;11.73;4.30;;;19.00;94.10;;;;;;5073811;28;20032;-84
2023/06/15 06:45:40;;;;;;;10.48;4.07;;;19.10;94.30;;;;;;5073880;28;20497;-84
2023/06/15 06:48:06;;;;;;;10.00;3.78;;;19.10;93.80;;;;;;5073447;28;20044;-84
2023/06/15 06:50:31;;;;;;;11.85;4.20;;;19.30;92.90;;;;;;5056649;28;20035;-84
2023/06/15 06:52:57;;;;;;;11.50;4.22;;;19.30;93.00;;;;;;5073472;28;20036;-84
2023/06/15 06:55:23;;;;;;;12.48;4.05;;;19.40;93.10;;;;;;5073410;28;20043;-84
2023/06/15 06:57:49;;;;;;;10.18;4.13;;;19.50;92.80;;;;;;5056577;28;20040;-84
2023/06/15 07:00:15;;;;;;;12.27;3.95;;;19.60;92.20;;;;;;5072939;28;20123;-84
2023/06/15 07:02:41;;;;;;;10.77;4.20;;;19.70;91.60;;;;;;5056550;28;20040;-84
2023/06/15 07:05:07;;;;;;;10.80;4.28;;;19.80;90.90;;;;;;5073492;28;20097;-84
2023/06/15 07:07:32;;;;;;;9.98;3.83;;;19.80;90.60;;;;;;5073182;28;20039;-84
2023/06/15 07:09:58;;;;;;;11.40;4.03;;;19.90;90.00;;;;;;5056061;28;20119;-84
2023/06/15 07:12:23;;;;;;;10.63;3.85;;;20.00;89.20;;;;;;5072865;28;20041;-84
2023/06/15 07:14:50;;;;;;;11.77;3.88;;;20.10;89.30;;;;;;5073020;28;20057;-84
2023/06/15 07:17:15;;;;;;;9.43;3.60;;;20.20;87.50;;;;;;5073261;28;20446;-84
2023/06/15 07:19:41;;;;;;;8.88;3.65;;;20.20;85.80;;;;;;5072576;28;20072;-84
2023/06/15 07:22:07;;;;;;;9.35;3.20;;;20.40;85.60;;;;;;5072862;28;20053;-84
2023/06/15 07:24:32;;;;;;;9.32;3.40;;;20.40;84.20;;;;;;5072853;28;20044;-84
2023/06/15 07:26:58;;;;;;;10.63;3.47;;;20.50;83.10;;;;;;5072756;28;20037;-84
2023/06/15 07:29:24;;;;;;;10.45;3.90;;;20.60;81.50;;;;;;5072749;28;20123;-84
2023/06/15 07:31:50;;;;;;;8.23;3.13;;;20.70;81.40;;;;;;5055720;28;20089;-84
2023/06/15 07:34:16;;;;;;;9.70;3.42;;;20.70;80.30;;;;;;5069460;28;20048;-84
2023/06/15 07:36:41;;;;;;;10.07;3.25;;;20.80;79.50;;;;;;5071382;28;20045;-84
2023/06/15 07:39:07;;;;;;;8.10;3.20;;;20.90;78.80;;;;;;5071963;28;20045;-84
2023/06/15 07:41:32;;;;;;;9.70;3.40;;;20.90;77.70;;;;;;5072308;28;20033;-84
2023/06/15 07:43:58;;;;;;;8.63;3.38;;;21.00;76.50;;;;;;5071912;28;20580;-84
2023/06/15 07:46:24;;;;;;;9.57;3.65;;;21.10;75.60;;;;;;5054761;28;20560;-84
2023/06/15 07:48:49;;;;;;;8.00;3.05;;;21.20;75.60;;;;;;5071212;28;20041;-83
2023/06/15 07:51:15;;;;;;;10.02;3.30;;;21.30;73.80;;;;;;5071162;28;20040;-84
2023/06/15 07:53:41;;;;;;;8.70;3.15;;;21.40;73.60;;;;;;5055101;28;20379;-84
2023/06/15 07:56:06;;;;;;;8.10;3.20;;;21.40;73.90;;;;;;5054550;28;20047;-84
2023/06/15 07:58:32;;;;;;;8.23;3.33;;;21.50;73.20;;;;;;5055085;28;20037;-84
2023/06/15 08:00:57;;;;;;;9.38;3.42;;;21.60;73.50;;;;;;5070976;28;20550;-84
2023/06/15 08:03:23;;;;;;;8.13;3.10;;;21.70;72.60;;;;;;5054495;28;20090;-84
2023/06/15 08:05:48;;;;;;;9.23;3.20;;;21.80;72.80;;;;;;5054588;28;20037;-84
2023/06/15 08:08:14;;;;;;;10.07;3.40;;;21.90;73.60;;;;;;5071627;28;20113;-84
2023/06/15 08:10:39;;;;;;;8.98;3.05;;;21.90;72.80;;;;;;5071221;28;20044;-84
2023/06/15 08:13:06;;;;;;;10.50;3.28;;;22.00;72.00;;;;;;5072758;28;20123;-84
2023/06/15 08:15:33;;;;;;;8.27;3.10;;;22.10;70.50;;;;;;5071264;28;20047;-84
2023/06/15 08:17:59;;;;;;;8.88;3.50;;;22.20;69.50;;;;;;5070901;28;20036;-84
2023/06/15 08:20:26;;;;;;;8.15;3.15;;;22.20;68.80;;;;;;5071065;28;21681;-84
2023/06/15 08:22:51;;;;;;;8.65;3.17;;;22.30;68.40;;;;;;5087832;28;20126;-84
2023/06/15 08:25:17;;;;;;;8.98;3.45;;;22.40;67.80;;;;;;5070963;28;20068;-84
2023/06/15 08:27:43;;;;;;;8.63;3.20;;;22.40;67.00;;;;;;5070989;28;20039;-84
2023/06/15 08:30:09;;;;;;;10.95;3.35;;;22.50;67.00;;;;;;5070337;28;20421;-84
2023/06/15 08:32:35;;;;;;;7.80;3.03;;;22.60;66.50;;;;;;5070948;28;20519;-84
2023/06/15 08:35:00;;;;;;;12.48;3.60;;;22.60;65.80;;;;;;5071723;28;20123;-84
2023/06/15 08:37:26;;;;;;;10.27;3.40;;;22.70;65.80;;;;;;5071337;28;20040;-84
2023/06/15 08:39:52;;;;;;;15.00;3.38;;;22.80;66.30;;;;;;5054466;28;20127;-84
2023/06/15 08:42:18;;;;;;;9.68;3.30;;;22.90;65.80;;;;;;5071242;28;20036;-84
2023/06/15 08:44:47;;;;;;;8.00;3.50;;;22.90;65.00;;;;;;5071507;28;20047;-84
2023/06/15 08:47:13;;;;;;;11.20;4.15;;;23.00;64.40;;;;;;5071188;28;20040;-84
2023/06/15 08:49:40;;;;;;;10.27;4.32;;;23.10;64.00;;;;;;5070817;28;20045;-84
2023/06/15 08:52:08;;;;;;;9.38;3.30;;;23.10;63.30;;;;;;5071104;28;20083;-84
2023/06/15 08:54:35;;;;;;;7.75;2.85;;;23.20;63.00;;;;;;5054634;28;20040;-84
2023/06/15 08:57:01;;;;;;;9.65;3.35;;;23.20;63.10;;;;;;5054453;28;20098;-84
2023/06/15 08:59:29;;;;;;;9.18;3.50;;;23.30;63.20;;;;;;5071265;28;20524;-84
2023/06/15 09:01:55;;;;;;;8.52;4.07;;;23.30;63.00;;;;;;5070266;28;20041;-84
2023/06/15 09:04:21;;;;;;;9.40;3.05;;;23.40;62.30;;;;;;5052970;28;20029;-84
2023/06/15 09:06:49;;;;;;;6.82;3.13;;;23.50;61.20;;;;;;5070677;28;20387;-84
2023/06/15 09:09:15;;;;;;;8.05;2.90;;;23.50;60.70;;;;;;5070656;28;20436;-84
2023/06/15 09:11:45;;;;;;;8.00;3.15;;;23.60;60.30;;;;;;5052275;28;20044;-84
2023/06/15 09:14:11;;;;;;;16.88;3.80;;;23.60;60.30;;;;;;5051304;28;20513;-84
2023/06/15 09:16:38;;;;;;;11.98;3.38;;;23.70;60.20;;;;;;5070327;28;20046;-84
2023/06/15 09:19:11;;;;;;;8.65;3.00;;;23.70;59.70;;;;;;5071691;28;20150;-84
2023/06/15 09:21:41;;;;;;;9.98;3.30;;;23.80;59.70;;;;;;5069906;28;20040;-84
2023/06/15 09:24:08;;;;;;;8.88;3.08;;;23.80;59.40;;;;;;5070188;28;20507;-84
2023/06/15 09:26:36;;;;;;;8.27;3.03;;;23.90;58.90;;;;;;5070168;28;20115;-84
2023/06/15 09:29:09;;;;;;;9.07;3.47;;;23.90;59.10;;;;;;5070277;28;20036;-84
2023/06/15 09:31:36;;;;;;;7.57;3.20;;;24.00;60.00;;;;;;5053804;28;20498;-84
2023/06/15 09:34:10;;;;;;;9.60;4.45;;;24.10;60.50;;;;;;5070465;28;20043;-84
2023/06/15 09:36:40;;;;;;;8.52;3.50;;;24.20;60.10;;;;;;5070850;28;20040;-84
2023/06/15 09:39:09;;;;;;;8.25;3.72;;;24.20;59.70;;;;;;5070646;28;20032;-84
2023/06/15 09:41:56;;;;;;;8.93;3.47;;;24.30;59.70;;;;;;5052432;28;20047;-84
2023/06/15 09:44:23;;;;;;;7.80;3.10;;;24.40;58.60;;;;;;5070335;28;20119;-84
2023/06/15 09:46:51;;;;;;;7.55;3.17;;;24.50;58.00;;;;;;5070455;28;20036;-84
2023/06/15 09:49:25;;;;;;;9.48;3.45;;;24.50;57.30;;;;;;5053631;28;20033;-84
2023/06/15 09:51:52;;;;;;;8.57;3.05;;;24.60;56.50;;;;;;5070092;28;20040;-84
2023/06/15 09:54:22;;;;;;;7.63;2.83;;;24.70;55.90;;;;;;5070617;28;20045;-84
2023/06/15 09:56:50;;;;;;;7.22;3.58;;;24.70;56.40;;;;;;5053576;28;20051;-84
2023/06/15 09:59:16;;;;;;;11.10;5.60;;;24.80;56.20;;;;;;5053640;28;20119;-84
2023/06/15 10:01:45;;;;;;;8.10;3.17;;;24.90;56.30;;;;;;5069860;28;20490;-84
2023/06/15 10:04:12;;;;;;;8.15;3.05;;;24.90;54.60;;;;;;5070245;28;20040;-84
2023/06/15 10:06:41;;;;;;;7.28;2.95;;;24.90;55.10;;;;;;5070269;28;20505;-84
2023/06/15 10:09:09;;;;;;;9.43;3.38;;;25.00;54.60;;;;;;5053567;28;20071;-84
2023/06/15 10:11:41;;;;;;;8.48;3.03;;;25.10;54.40;;;;;;5070111;28;20045;-84
2023/06/15 10:14:25;;;;;;;8.90;3.20;;;25.20;55.00;;;;;;5070394;28;20048;-84
2023/06/15 10:16:57;;;;;;;7.65;2.85;;;25.20;54.60;;;;;;5053620;28;20048;-84
2023/06/15 10:19:25;;;;;;;;;;;25.30;54.10;;;;;;5070488;28;20406;-84
2023/06/15 10:21:52;;;;;;;8.45;3.20;;;25.20;53.90;;;;;;5069833;28;19926;-84
2023/06/15 10:24:21;;;;;;;10.10;3.20;;;25.30;52.90;;;;;;5050167;28;20037;-84
2023/06/15 10:26:46;;;;;;;7.05;2.90;;;25.40;51.80;;;;;;5069978;28;20040;-84
2023/06/15 10:29:27;;;;;;;7.68;3.17;;;25.50;51.40;;;;;;5053214;28;20303;-84
2023/06/15 10:32:06;;;;;;;9.35;3.13;;;25.50;52.60;;;;;;5068699;28;20056;-84
2023/06/15 10:35:14;;;;;;;9.10;2.80;;;25.70;51.80;;;;;;5049871;28;20120;-84
2023/06/15 10:37:48;;;;;;;6.60;2.92;;;25.70;51.00;;;;;;5032847;28;20106;-84
2023/06/15 10:40:32;;;;;;;7.95;3.42;;;25.80;51.00;;;;;;5049310;28;20045;-85
2023/06/15 10:43:01;;;;;;;7.80;3.10;;;25.80;50.70;;;;;;5049918;28;20143;-84
2023/06/15 10:45:31;;;;;;;9.38;3.67;;;25.90;50.20;;;;;;5049742;28;20045;-84
2023/06/15 10:47:58;;;;;;;8.38;3.30;;;25.90;49.50;;;;;;5054493;28;20076;-84
2023/06/15 10:50:25;;;;;;;7.85;3.35;;;25.90;50.60;;;;;;5068995;28;20036;-84
2023/06/15 10:52:51;;;;;;;9.85;3.28;;;26.00;51.10;;;;;;5069665;28;20047;-84
2023/06/15 10:55:26;;;;;;;7.85;3.40;;;26.10;51.30;;;;;;5055051;28;20052;-84
2023/06/15 10:58:17;;;;;;;10.32;3.10;;;26.10;50.40;;;;;;5054239;28;20037;-84
2023/06/15 11:00:44;;;;;;;8.00;3.25;;;26.20;50.80;;;;;;5071823;28;20555;-84
2023/06/15 11:03:27;;;;;;;9.45;3.40;;;26.30;50.30;;;;;;5072640;28;20485;-84
2023/06/15 11:06:08;;;;;;;10.25;3.50;;;26.40;49.50;;;;;;5072865;28;20082;-84
2023/06/15 11:08:48;;;;;;;9.20;3.30;;;26.40;48.80;;;;;;5070938;28;20043;-84
2023/06/15 11:11:19;;;;;;;9.88;3.53;;;26.40;48.80;;;;;;5070862;28;20379;-84
2023/06/15 11:14:02;;;;;;;10.05;3.10;;;26.50;48.20;;;;;;5072541;28;20115;-84
2023/06/15 11:16:32;;;;;;;8.50;3.35;;;26.60;48.40;;;;;;5070010;28;20041;-84
2023/06/15 11:19:10;;;;;;;6.80;2.95;;;26.60;47.40;;;;;;5072713;28;20036;-84
2023/06/15 11:21:40;;;;;;;7.75;3.10;;;26.70;47.80;;;;;;5070637;28;20047;-85
2023/06/15 11:24:08;;;;;;;7.95;3.03;;;26.90;47.80;;;;;;5072549;28;20067;-84
2023/06/15 11:26:39;;;;;;;9.35;3.10;;;27.00;48.50;;;;;;5073856;28;20032;-85
2023/06/15 11:29:07;;;;;;;7.60;3.25;;;27.10;48.20;;;;;;5072363;28;20028;-84
2023/06/15 11:31:33;;;;;;;9.20;3.40;;;27.20;48.30;;;;;;5069948;28;20028;-85
2023/06/15 11:33:59;;;;;;;10.13;3.28;;;27.30;48.10;;;;;;5055351;28;20398;-85
2023/06/15 11:36:25;;;;;;;8.32;3.40;;;27.30;47.90;;;;;;5072643;28;20094;-85
2023/06/15 11:38:52;;;;;;;9.15;3.05;;;27.40;46.50;;;;;;5071876;28;20062;-84
2023/06/15 11:41:17;;;;;;;9.73;3.00;;;27.30;45.10;;;;;;5073434;28;20056;-85
2023/06/15 11:43:48;;;;;;;12.13;3.60;;;27.30;46.40;;;;;;5072063;28;20395;-85
2023/06/15 11:46:21;;;;;;;9.25;3.08;;;27.40;47.30;;;;;;5072077;28;20028;-85
2023/06/15 11:48:48;;;;;;;10.98;3.13;;;27.50;47.90;;;;;;5053158;28;20048;-85
2023/06/15 11:51:15;;;;;;;8.63;3.33;;;27.70;49.00;;;;;;5071334;28;20062;-85
2023/06/15 11:53:43;;;;;;;7.22;3.20;;;27.80;49.90;;;;;;5055873;28;20131;-85
2023/06/15 11:56:12;;;;;;;6.78;2.90;;;28.00;48.70;;;;;;5072284;28;20067;-85
2023/06/15 11:58:42;;;;;;;9.82;2.90;;;28.10;48.70;;;;;;5071589;28;20047;-85
2023/06/15 12:01:11;;;;;;;7.85;3.10;;;28.20;46.40;;;;;;5073176;28;20123;-85
2023/06/15 12:03:39;;;;;;;9.68;3.20;;;28.10;46.60;;;;;;5072288;28;20115;-85
2023/06/15 12:06:06;;;;;;;6.47;2.80;;;28.10;46.50;;;;;;5071595;28;20098;-85
2023/06/15 12:08:32;;;;;;;9.15;2.90;;;28.00;45.70;;;;;;5072365;28;20041;-85
2023/06/15 12:10:59;;;;;;;8.52;3.10;;;28.00;46.10;;;;;;5071689;28;20052;-85
2023/06/15 12:13:26;;;;;;;10.50;3.03;;;28.00;45.80;;;;;;5055466;28;20399;-85
2023/06/15 12:15:51;;;;;;;8.57;2.90;;;28.00;46.00;;;;;;5071937;28;20043;-85
2023/06/15 12:18:19;;;;;;;7.60;3.20;;;28.10;45.70;;;;;;5055102;28;20048;-85
2023/06/15 12:20:46;;;;;;;9.32;3.10;;;28.20;44.90;;;;;;5071695;28;20098;-85
2023/06/15 12:23:25;;;;;;;9.57;3.17;;;28.30;45.10;;;;;;5072007;28;20040;-85
2023/06/15 12:25:55;;;;;;;9.55;3.08;;;28.40;45.60;;;;;;5071561;28;20083;-85
2023/06/15 12:28:21;;;;;;;6.97;2.92;;;28.50;44.30;;;;;;5055023;28;20128;-85
2023/06/15 12:30:48;;;;;;;9.50;2.97;;;28.60;43.50;;;;;;5054513;28;20045;-85
2023/06/15 12:33:25;;;;;;;6.70;2.90;;;28.60;42.90;;;;;;5071367;28;20090;-85
2023/06/15 12:35:51;;;;;;;6.38;2.53;;;28.70;43.70;;;;;;5071483;28;20040;-85
2023/06/15 12:38:17;;;;;;;8.00;2.83;;;28.80;43.20;;;;;;5071707;28;20036;-85
2023/06/15 12:40:43;;;;;;;9.93;2.85;;;28.90;43.40;;;;;;5070989;28;20575;-85
2023/06/15 12:43:09;;;;;;;8.88;2.67;;;29.00;43.40;;;;;;5071506;28;20032;-85
2023/06/15 12:45:35;;;;;;;7.07;2.65;;;29.10;43.10;;;;;;5071327;28;20491;-85